Terminal Aerodrome Forecast
Issued by NWS

Home | Current Version | Previous Version | Text Only | Print | Product List | Glossary On
Versions: 1 2 3 4 5 6 7 8 9 10 11 12 13 14 15
000
FTAK31 PAJN 211100
TAFAGY
TAF
PAGY 211125Z 2112/2212 VRB03KT P6SM SCT060
     FM211600 21010KT P6SM VCSH FEW050 BKN080
     FM211900 21010G20KT P6SM VCSH BKN080
     FM220600 VRB05KT P6SM SCT080
      AMD LTD TO CLD VIS AND WIND=

USA.gov is the U.S. government's official web portal to all federal, state and local government web resources and services.